createdAt,value
2022-09-29T00:01:06.886Z,28.70
2022-09-29T00:03:35.096Z,26.42
2022-09-29T00:06:02.301Z,47.95
2022-09-29T00:08:32.336Z,63.83
2022-09-29T00:10:59.750Z,39.95
2022-09-29T00:13:27.036Z,29.70
2022-09-29T00:15:59.891Z,28.45
2022-09-29T00:18:29.020Z,27.35
2022-09-29T00:21:04.661Z,25.67
2022-09-29T00:23:34.674Z,23.67
2022-09-29T00:26:20.729Z,21.55
2022-09-29T00:28:57.121Z,26.40
2022-09-29T00:31:28.955Z,25.02
2022-09-29T00:33:57.335Z,27.25
2022-09-29T00:36:25.556Z,29.40
2022-09-29T00:38:53.845Z,18.48
2022-09-29T00:41:24.646Z,21.38
2022-09-29T00:44:01.681Z,18.50
2022-09-29T00:46:49.883Z,21.73
2022-09-29T00:49:17.136Z,21.80
2022-09-29T00:51:51.815Z,26.30
2022-09-29T00:54:20.377Z,24.63
2022-09-29T00:56:50.406Z,4.40
2022-09-29T00:59:28.695Z,5.15
2022-09-29T01:01:56.257Z,1.98
2022-09-29T01:04:23.835Z,3.40
2022-09-29T01:06:56.323Z,2.05
2022-09-29T01:09:34.115Z,2.15
2022-09-29T01:12:02.222Z,2.08
2022-09-29T01:14:31.260Z,1.30
2022-09-29T01:17:00.920Z,2.67
2022-09-29T01:20:04.029Z,1.73
2022-09-29T01:22:54.655Z,1.63
2022-09-29T01:25:31.245Z,2.10
2022-09-29T01:28:36.358Z,1.27
2022-09-29T01:31:23.903Z,4.85
2022-09-29T01:34:21.543Z,2.17
2022-09-29T01:37:13.636Z,1.23
2022-09-29T01:39:54.865Z,1.38
2022-09-29T01:42:27.692Z,2.55
2022-09-29T01:45:06.698Z,5.47
2022-09-29T01:47:45.137Z,2.00
2022-09-29T01:50:21.835Z,1.90
2022-09-29T01:52:54.769Z,1.08
2022-09-29T01:55:27.400Z,1.73
2022-09-29T01:58:07.947Z,1.40
2022-09-29T02:00:45.933Z,3.42
2022-09-29T02:03:13.111Z,2.33
2022-09-29T02:05:55.953Z,9.32
2022-09-29T02:08:27.435Z,5.18
2022-09-29T02:11:07.556Z,2.88
2022-09-29T02:13:53.865Z,3.80
2022-09-29T02:18:59.010Z,4.38
2022-09-29T02:21:28.320Z,5.30
2022-09-29T02:23:56.720Z,5.50
2022-09-29T02:26:35.690Z,3.40
2022-09-29T02:29:06.156Z,4.07
2022-09-29T02:31:34.156Z,2.72
2022-09-29T02:34:02.456Z,2.97
2022-09-29T02:36:57.126Z,2.13
2022-09-29T02:39:52.341Z,3.78
2022-09-29T02:42:39.915Z,3.53
2022-09-29T02:45:24.156Z,2.90
2022-09-29T02:48:30.283Z,2.78
2022-09-29T02:51:26.775Z,2.38
2022-09-29T02:54:19.714Z,1.83
2022-09-29T02:56:59.131Z,2.45
2022-09-29T02:59:40.391Z,1.85
2022-09-29T03:02:07.581Z,2.75
2022-09-29T03:04:34.925Z,3.58
2022-09-29T03:07:02.190Z,3.35
2022-09-29T03:09:29.380Z,2.63
2022-09-29T03:11:56.920Z,3.80
2022-09-29T03:14:24.066Z,3.85
2022-09-29T03:16:51.300Z,2.53
2022-09-29T03:19:18.740Z,2.10
2022-09-29T03:21:45.935Z,2.35
2022-09-29T03:24:13.061Z,1.77
2022-09-29T03:26:40.571Z,2.22
2022-09-29T03:29:08.395Z,2.65
2022-09-29T03:31:35.611Z,3.47
2022-09-29T03:34:03.117Z,2.45
2022-09-29T03:36:31.016Z,2.17
2022-09-29T03:38:58.151Z,1.63
2022-09-29T03:41:25.575Z,2.53
2022-09-29T03:43:52.885Z,3.65
2022-09-29T03:46:20.105Z,2.30
2022-09-29T03:48:47.485Z,3.13
2022-09-29T03:51:14.686Z,2.35
2022-09-29T03:53:41.941Z,6.43
2022-09-29T03:56:09.431Z,2.72
2022-09-29T03:58:36.702Z,2.60
2022-09-29T04:01:03.949Z,2.30
2022-09-29T04:03:31.495Z,3.08
2022-09-29T04:05:58.755Z,2.35
2022-09-29T04:08:25.916Z,2.70
2022-09-29T04:10:53.418Z,2.05
2022-09-29T04:13:22.795Z,1.92
2022-09-29T04:15:50.206Z,4.30
2022-09-29T04:18:17.720Z,2.22
2022-09-29T04:20:44.905Z,2.28
2022-09-29T04:23:12.959Z,2.08
2022-09-29T04:25:40.355Z,4.43
2022-09-29T04:28:07.540Z,1.77
2022-09-29T04:30:34.688Z,3.40
2022-09-29T04:33:02.395Z,3.28
2022-09-29T04:35:33.600Z,2.88
2022-09-29T04:38:03.599Z,2.80
2022-09-29T04:40:30.853Z,3.00
2022-09-29T04:42:58.073Z,4.97
2022-09-29T04:45:25.590Z,4.68
2022-09-29T04:47:52.776Z,4.38
2022-09-29T04:50:19.956Z,4.68
2022-09-29T04:52:48.215Z,3.20
2022-09-29T04:55:15.681Z,2.85
2022-09-29T04:57:44.344Z,5.28
2022-09-29T05:00:12.402Z,7.22
2022-09-29T05:02:39.714Z,6.05
2022-09-29T05:05:07.974Z,3.47
2022-09-29T05:07:35.698Z,4.05
2022-09-29T05:10:03.732Z,5.07
2022-09-29T05:12:31.620Z,6.50
2022-09-29T05:15:01.675Z,9.13
2022-09-29T05:17:28.996Z,5.65
2022-09-29T05:19:56.197Z,6.60
2022-09-29T05:22:26.173Z,6.63
2022-09-29T05:24:53.686Z,9.88
2022-09-29T05:27:22.589Z,11.80
2022-09-29T05:29:50.080Z,7.90
2022-09-29T05:32:17.406Z,8.32
2022-09-29T05:34:44.530Z,10.05
2022-09-29T05:37:12.059Z,7.28
2022-09-29T05:39:40.026Z,8.73
2022-09-29T05:42:11.302Z,14.95
2022-09-29T05:44:38.793Z,12.55
2022-09-29T05:47:06.130Z,13.57
2022-09-29T05:49:33.560Z,17.00
2022-09-29T05:52:01.146Z,14.70
2022-09-29T05:54:28.320Z,11.32
2022-09-29T05:56:56.342Z,8.98
2022-09-29T05:59:26.771Z,5.70
2022-09-29T06:01:53.974Z,7.45
2022-09-29T06:04:21.233Z,15.43
2022-09-29T06:06:48.773Z,18.27
2022-09-29T06:09:16.211Z,25.00
2022-09-29T06:11:43.480Z,34.75
2022-09-29T06:14:10.897Z,38.05
2022-09-29T06:16:38.178Z,38.78
2022-09-29T06:19:05.698Z,17.40
2022-09-29T06:21:35.483Z,14.55
2022-09-29T06:24:02.927Z,10.68
2022-09-29T06:26:30.407Z,9.13
2022-09-29T06:28:58.767Z,8.13
2022-09-29T06:31:29.115Z,4.60
2022-09-29T06:34:01.535Z,8.40
2022-09-29T06:37:02.680Z,6.60
2022-09-29T06:39:32.395Z,35.47
2022-09-29T06:42:01.323Z,30.67
2022-09-29T06:44:30.978Z,20.05
2022-09-29T06:46:58.820Z,24.17
2022-09-29T06:49:26.415Z,20.77
2022-09-29T06:51:54.419Z,19.85
2022-09-29T06:54:25.369Z,16.73
2022-09-29T06:56:54.689Z,23.08
2022-09-29T06:59:22.141Z,17.10
2022-09-29T07:01:51.242Z,15.30
2022-09-29T07:04:21.290Z,12.07
2022-09-29T07:06:49.567Z,11.00
2022-09-29T07:09:17.734Z,10.75
2022-09-29T07:11:48.040Z,11.20
2022-09-29T07:14:18.162Z,7.38
2022-09-29T07:16:46.944Z,4.47
2022-09-29T07:19:15.275Z,5.72
2022-09-29T07:21:42.835Z,4.20
2022-09-29T07:24:10.195Z,7.68
2022-09-29T07:26:38.195Z,6.50
2022-09-29T07:29:05.552Z,10.48
2022-09-29T07:31:43.200Z,11.40
2022-09-29T07:34:15.364Z,9.90
2022-09-29T07:36:42.542Z,10.35
2022-09-29T07:39:10.035Z,12.95
2022-09-29T07:41:37.635Z,8.88
2022-09-29T07:44:05.630Z,19.80
2022-09-29T07:46:33.273Z,14.60
2022-09-29T07:49:00.900Z,23.20
2022-09-29T07:51:28.180Z,18.10
2022-09-29T07:54:00.966Z,17.00
2022-09-29T07:56:28.431Z,15.68
2022-09-29T07:58:56.369Z,11.68
2022-09-29T08:01:23.755Z,13.82
2022-09-29T08:03:54.477Z,15.52
2022-09-29T08:06:24.490Z,17.83
2022-09-29T08:09:02.525Z,16.67
2022-09-29T08:11:33.425Z,12.40
2022-09-29T08:14:02.210Z,6.63
2022-09-29T08:16:30.124Z,8.45
2022-09-29T08:18:58.725Z,8.25
2022-09-29T08:21:30.245Z,6.70
2022-09-29T08:23:57.860Z,3.63
2022-09-29T08:26:38.368Z,19.05
2022-09-29T08:29:09.083Z,5.03
2022-09-29T08:31:38.544Z,8.10
2022-09-29T08:34:07.146Z,5.57
2022-09-29T08:36:34.720Z,17.15
2022-09-29T08:39:03.940Z,5.70
2022-09-29T08:41:35.116Z,11.35
2022-09-29T08:44:36.335Z,4.95
2022-09-29T08:47:15.606Z,3.97
2022-09-29T08:49:48.336Z,4.30
2022-09-29T08:52:28.818Z,3.50
2022-09-29T08:55:21.805Z,2.17
2022-09-29T08:57:58.546Z,1.77
2022-09-29T09:00:42.494Z,2.72
2022-09-29T09:03:30.695Z,6.30
2022-09-29T09:06:11.756Z,4.30
2022-09-29T09:08:58.052Z,5.03
2022-09-29T09:14:25.961Z,6.30
2022-09-29T09:17:21.131Z,7.65
2022-09-29T09:20:03.252Z,6.47
2022-09-29T09:22:36.357Z,4.35
2022-09-29T09:25:32.583Z,4.03
2022-09-29T09:28:20.270Z,5.00
2022-09-29T09:31:13.548Z,5.03
2022-09-29T09:34:15.931Z,7.20
2022-09-29T09:36:46.910Z,10.30
2022-09-29T09:39:25.811Z,6.13
2022-09-29T09:41:56.665Z,3.88
2022-09-29T09:44:37.821Z,8.35
2022-09-29T09:47:23.400Z,4.95
2022-09-29T09:50:04.997Z,7.20
2022-09-29T09:52:57.051Z,5.20
2022-09-29T09:55:28.454Z,7.50
2022-09-29T09:58:16.966Z,7.88
2022-09-29T10:00:52.800Z,21.38
2022-09-29T10:03:20.075Z,15.38
2022-09-29T10:05:49.340Z,5.32
2022-09-29T10:08:29.500Z,5.63
2022-09-29T10:10:59.768Z,4.00
2022-09-29T10:13:30.669Z,4.90
2022-09-29T10:16:10.351Z,1.98
2022-09-29T10:18:52.790Z,2.63
2022-09-29T10:21:29.342Z,7.25
2022-09-29T10:23:57.595Z,3.97
2022-09-29T10:26:35.130Z,2.88
2022-09-29T10:29:18.269Z,16.30
2022-09-29T10:32:02.993Z,6.38
2022-09-29T10:34:32.333Z,10.98
2022-09-29T10:37:06.470Z,9.40
2022-09-29T10:39:43.785Z,5.05
2022-09-29T10:42:21.715Z,2.70
2022-09-29T10:45:15.209Z,1.35
2022-09-29T10:47:49.009Z,0.88
2022-09-29T10:50:37.464Z,3.88
2022-09-29T10:53:19.549Z,1.52
2022-09-29T10:55:54.145Z,4.40
2022-09-29T10:58:56.535Z,2.42
2022-09-29T11:01:26.993Z,2.63
2022-09-29T11:04:03.871Z,2.00
2022-09-29T11:06:43.865Z,5.03
2022-09-29T11:09:16.060Z,6.93
2022-09-29T11:11:49.321Z,4.43
2022-09-29T11:14:32.768Z,4.20
2022-09-29T11:17:01.994Z,5.50
2022-09-29T11:19:31.264Z,4.85
2022-09-29T11:22:28.160Z,5.20
2022-09-29T11:25:34.313Z,4.97
2022-09-29T11:28:36.381Z,4.75
2022-09-29T11:31:38.302Z,4.55
2022-09-29T11:34:05.718Z,9.80
2022-09-29T11:36:43.351Z,8.68
2022-09-29T11:39:13.337Z,5.07
2022-09-29T11:42:08.655Z,6.70
2022-09-29T11:44:58.511Z,5.15
2022-09-29T11:47:28.929Z,7.03
2022-09-29T11:50:20.625Z,5.55
2022-09-29T11:53:00.151Z,7.05
2022-09-29T11:55:36.377Z,9.27
2022-09-29T11:58:22.683Z,5.97
2022-09-29T12:01:04.740Z,6.88
2022-09-29T12:03:47.405Z,6.80
2022-09-29T12:06:45.736Z,7.40
2022-09-29T12:09:28.936Z,4.47
2022-09-29T12:12:24.630Z,5.03
2022-09-29T12:15:22.498Z,5.00
2022-09-29T12:17:57.275Z,6.25
2022-09-29T12:20:29.675Z,4.68
2022-09-29T12:23:01.345Z,5.65
2022-09-29T12:25:33.655Z,8.70
2022-09-29T12:28:07.124Z,6.18
2022-09-29T12:30:46.387Z,8.18
2022-09-29T12:33:36.735Z,4.65
2022-09-29T12:36:41.442Z,6.53
2022-09-29T12:39:43.727Z,4.70
2022-09-29T12:42:17.340Z,6.00
2022-09-29T12:44:55.755Z,5.88
2022-09-29T12:47:52.141Z,9.35
2022-09-29T12:50:28.762Z,5.95
2022-09-29T12:53:23.211Z,4.93
2022-09-29T12:56:06.981Z,6.38
2022-09-29T12:58:41.515Z,6.50
2022-09-29T13:01:27.309Z,12.82
2022-09-29T13:04:32.901Z,5.25
2022-09-29T13:07:03.169Z,7.88
2022-09-29T13:09:36.709Z,8.77
2022-09-29T13:12:11.861Z,7.40
2022-09-29T13:15:02.357Z,6.13
2022-09-29T13:17:54.038Z,12.23
2022-09-29T13:20:44.311Z,7.63
2022-09-29T13:23:24.666Z,7.15
2022-09-29T13:26:19.292Z,15.63
2022-09-29T13:28:53.412Z,8.88
2022-09-29T13:31:32.606Z,16.88
2022-09-29T13:34:03.428Z,21.20
2022-09-29T13:36:44.280Z,11.93
2022-09-29T13:39:27.103Z,24.15
2022-09-29T13:42:36.776Z,23.75
2022-09-29T13:45:35.265Z,15.00
2022-09-29T13:48:31.409Z,10.63
2022-09-29T13:51:05.278Z,11.52
2022-09-29T13:53:37.779Z,9.48
2022-09-29T13:56:05.233Z,12.85
2022-09-29T13:58:39.951Z,13.77
2022-09-29T14:01:10.782Z,13.90
2022-09-29T14:03:44.020Z,10.82
2022-09-29T14:06:40.573Z,11.02
2022-09-29T14:09:16.915Z,10.73
2022-09-29T14:14:25.606Z,17.85
2022-09-29T14:17:01.808Z,16.75
2022-09-29T14:19:50.562Z,14.50
2022-09-29T14:22:30.151Z,12.43
2022-09-29T14:25:12.340Z,19.73
2022-09-29T14:27:50.171Z,19.15
2022-09-29T14:30:20.605Z,21.20
2022-09-29T14:33:08.782Z,22.23
2022-09-29T14:35:40.528Z,33.95
2022-09-29T14:38:26.062Z,123.53
2022-09-29T14:41:22.350Z,129.38
2022-09-29T14:44:16.466Z,64.50
2022-09-29T14:47:11.802Z,17.35
2022-09-29T14:50:36.002Z,37.08
2022-09-29T14:53:34.654Z,18.02
2022-09-29T14:56:20.476Z,23.30
2022-09-29T14:59:00.327Z,47.30
2022-09-29T15:01:30.234Z,24.33
2022-09-29T15:04:05.442Z,25.80
2022-09-29T15:06:33.473Z,15.07
2022-09-29T15:09:25.211Z,19.50
2022-09-29T15:11:56.791Z,22.13
2022-09-29T15:14:31.152Z,25.83
2022-09-29T15:17:29.474Z,19.42
2022-09-29T15:20:17.140Z,23.33
2022-09-29T15:23:16.161Z,26.92
2022-09-29T15:25:49.236Z,32.17
2022-09-29T15:28:30.683Z,28.45
2022-09-29T15:31:03.452Z,20.45
2022-09-29T15:33:36.124Z,20.42
2022-09-29T15:36:07.146Z,26.83
2022-09-29T15:38:40.409Z,41.20
2022-09-29T15:41:27.597Z,30.77
2022-09-29T15:44:13.560Z,30.35
2022-09-29T15:46:49.047Z,38.42
2022-09-29T15:49:21.498Z,35.35
2022-09-29T15:52:05.300Z,29.73
2022-09-29T15:57:44.956Z,59.40
2022-09-29T16:00:21.661Z,37.17
2022-09-29T16:03:02.540Z,37.78
2022-09-29T16:05:33.680Z,30.52
2022-09-29T16:08:07.648Z,27.13
2022-09-29T16:10:41.323Z,24.08
2022-09-29T16:13:19.959Z,24.15
2022-09-29T16:15:50.085Z,52.40
2022-09-29T16:18:38.280Z,76.20
2022-09-29T16:21:12.333Z,34.15
2022-09-29T16:24:02.729Z,27.23
2022-09-29T16:26:37.155Z,43.65
2022-09-29T16:29:22.740Z,32.65
2022-09-29T16:31:52.324Z,35.50
2022-09-29T16:34:23.807Z,65.15
2022-09-29T16:37:04.071Z,27.63
2022-09-29T16:39:42.705Z,38.65
2022-09-29T16:42:25.783Z,50.45
2022-09-29T16:44:55.993Z,35.15
2022-09-29T16:47:27.570Z,42.15
2022-09-29T16:49:54.800Z,50.35
2022-09-29T16:52:27.156Z,48.10
2022-09-29T16:55:31.145Z,34.67
2022-09-29T16:58:15.222Z,31.83
2022-09-29T17:00:44.874Z,172.02
2022-09-29T17:03:12.433Z,214.18
2022-09-29T17:05:55.526Z,152.13
2022-09-29T17:08:29.094Z,133.77
2022-09-29T17:10:57.575Z,91.82
2022-09-29T17:13:33.216Z,97.53
2022-09-29T17:16:01.131Z,133.15
2022-09-29T17:18:29.405Z,92.78
2022-09-29T17:20:56.856Z,105.70
2022-09-29T17:23:24.310Z,98.80
2022-09-29T17:25:51.945Z,66.63
2022-09-29T17:28:26.750Z,62.95
2022-09-29T17:30:55.827Z,75.00
2022-09-29T17:33:23.901Z,87.80
2022-09-29T17:35:56.105Z,66.85
2022-09-29T17:38:24.401Z,54.40
2022-09-29T17:40:58.392Z,56.95
2022-09-29T17:43:26.892Z,34.58
2022-09-29T17:45:58.892Z,41.10
2022-09-29T17:48:33.796Z,32.50
2022-09-29T17:51:04.223Z,29.17
2022-09-29T17:53:31.433Z,247.95
2022-09-29T17:55:58.722Z,82.63
2022-09-29T17:58:26.145Z,103.10
2022-09-29T18:00:54.576Z,111.05
2022-09-29T18:03:22.242Z,48.50
2022-09-29T18:05:56.900Z,57.72
2022-09-29T18:08:27.025Z,50.05
2022-09-29T18:11:00.042Z,63.17
2022-09-29T18:13:28.971Z,39.65
2022-09-29T18:15:56.938Z,37.33
2022-09-29T18:18:24.941Z,30.67
2022-09-29T18:20:52.362Z,79.60
2022-09-29T18:23:21.065Z,77.88
2022-09-29T18:25:50.522Z,66.63
2022-09-29T18:28:21.025Z,71.03
2022-09-29T18:30:52.524Z,91.40
2022-09-29T18:33:20.682Z,58.15
2022-09-29T18:35:53.273Z,51.17
2022-09-29T18:38:21.059Z,63.10
2022-09-29T18:40:51.273Z,44.30
2022-09-29T18:43:25.378Z,53.90
2022-09-29T18:45:55.600Z,52.05
2022-09-29T18:48:22.825Z,54.28
2022-09-29T18:50:51.887Z,50.10
2022-09-29T18:53:21.206Z,74.57
2022-09-29T18:55:52.633Z,88.05
2022-09-29T18:58:21.370Z,62.70
2022-09-29T19:00:51.611Z,68.65
2022-09-29T19:03:19.526Z,32.05
2022-09-29T19:05:48.563Z,95.28
2022-09-29T19:08:18.080Z,118.38
2022-09-29T19:10:57.525Z,59.08
2022-09-29T19:13:25.477Z,52.13
2022-09-29T19:15:57.209Z,64.72
2022-09-29T19:18:25.095Z,121.95
2022-09-29T19:21:00.455Z,154.57
2022-09-29T19:23:28.169Z,174.13
2022-09-29T19:25:58.740Z,166.30
2022-09-29T19:28:27.507Z,88.75
2022-09-29T19:31:06.097Z,127.85
2022-09-29T19:33:34.354Z,147.48
2022-09-29T19:36:08.240Z,138.05
2022-09-29T19:38:37.463Z,165.10
2022-09-29T19:41:04.982Z,153.55
2022-09-29T19:43:32.742Z,149.77
2022-09-29T19:46:07.206Z,159.45
2022-09-29T19:48:34.557Z,107.97
2022-09-29T19:51:20.620Z,153.40
2022-09-29T19:53:49.612Z,73.25
2022-09-29T19:56:17.658Z,55.05
2022-09-29T19:58:45.262Z,38.70
2022-09-29T20:01:15.442Z,29.42
2022-09-29T20:03:43.650Z,35.10
2022-09-29T20:06:11.051Z,30.02
2022-09-29T20:08:38.251Z,27.17
2022-09-29T20:11:11.794Z,40.75
2022-09-29T20:13:39.529Z,69.82
2022-09-29T20:16:07.676Z,60.78
2022-09-29T20:18:40.199Z,63.05
2022-09-29T20:21:10.085Z,38.92
2022-09-29T20:23:40.056Z,38.60
2022-09-29T20:26:11.302Z,44.50
2022-09-29T20:28:40.353Z,47.38
2022-09-29T20:31:08.062Z,42.08
2022-09-29T20:33:36.953Z,46.10
2022-09-29T20:36:05.550Z,30.23
2022-09-29T20:38:36.061Z,28.40
2022-09-29T20:41:04.274Z,28.58
2022-09-29T20:43:34.778Z,34.13
2022-09-29T20:46:08.208Z,42.15
2022-09-29T20:48:39.460Z,44.50
2022-09-29T20:51:16.323Z,30.42
2022-09-29T20:53:46.595Z,25.95
2022-09-29T20:56:18.723Z,34.63
2022-09-29T20:58:51.581Z,32.20
2022-09-29T21:01:24.491Z,26.80
2022-09-29T21:04:11.366Z,28.40
2022-09-29T21:09:14.549Z,28.58
2022-09-29T21:11:47.254Z,30.35
2022-09-29T21:14:20.648Z,39.40
2022-09-29T21:16:51.530Z,38.50
2022-09-29T21:19:26.839Z,34.28
2022-09-29T21:21:55.780Z,32.30
2022-09-29T21:24:23.689Z,24.83
2022-09-29T21:26:51.066Z,27.60
2022-09-29T21:29:19.634Z,35.55
2022-09-29T21:31:47.612Z,73.00
2022-09-29T21:34:15.650Z,58.10
2022-09-29T21:36:43.242Z,33.65
2022-09-29T21:39:11.130Z,37.00
2022-09-29T21:41:41.352Z,29.88
2022-09-29T21:44:15.735Z,29.20
2022-09-29T21:46:44.232Z,38.28
2022-09-29T21:49:13.676Z,31.50
2022-09-29T21:51:43.935Z,21.58
2022-09-29T21:54:23.125Z,19.80
2022-09-29T21:56:51.660Z,23.70
2022-09-29T21:59:20.923Z,28.17
2022-09-29T22:01:49.370Z,25.58
2022-09-29T22:04:16.620Z,26.88
2022-09-29T22:06:45.331Z,21.23
2022-09-29T22:09:22.126Z,19.00
2022-09-29T22:11:50.790Z,21.83
2022-09-29T22:14:21.375Z,19.35
2022-09-29T22:16:48.645Z,22.88
2022-09-29T22:19:32.605Z,35.88
2022-09-29T22:22:00.052Z,31.30
2022-09-29T22:24:29.626Z,37.88
2022-09-29T22:26:57.243Z,35.28
2022-09-29T22:29:26.147Z,32.25
2022-09-29T22:31:56.717Z,27.92
2022-09-29T22:40:15.840Z,23.63
2022-09-29T22:42:48.387Z,75.40
2022-09-29T22:45:20.450Z,33.22
2022-09-29T22:48:07.555Z,44.17
2022-09-29T22:50:38.410Z,34.67
2022-09-29T22:56:54.455Z,28.15
2022-09-29T22:59:33.956Z,31.88
2022-09-29T23:02:08.487Z,36.55
2022-09-29T23:04:40.671Z,33.47
2022-09-29T23:08:40.342Z,27.13
2022-09-29T23:16:12.763Z,30.95
2022-09-29T23:29:29.755Z,23.83
2022-09-29T23:36:56.265Z,26.75
2022-09-29T23:39:54.556Z,25.55
2022-09-29T23:46:45.682Z,29.85
2022-09-29T23:49:19.186Z,28.88
2022-09-29T23:51:50.856Z,28.75
2022-09-29T23:54:22.001Z,26.27
2022-09-29T23:56:54.333Z,33.70
2022-09-29T23:59:21.848Z,32.42
